createdAt,value
2023-08-13T00:01:22.063Z,12.99
2023-08-13T00:03:49.623Z,12.98
2023-08-13T00:06:17.225Z,12.96
2023-08-13T00:08:44.717Z,12.94
2023-08-13T00:11:12.858Z,12.93
2023-08-13T00:13:41.338Z,12.92
2023-08-13T00:16:09.227Z,12.89
2023-08-13T00:18:36.968Z,12.85
2023-08-13T00:21:04.451Z,12.82
2023-08-13T00:23:32.236Z,12.79
2023-08-13T00:25:59.618Z,12.77
2023-08-13T00:28:27.051Z,12.76
2023-08-13T00:30:55.629Z,12.74
2023-08-13T00:33:23.015Z,12.73
2023-08-13T00:35:51.947Z,12.71
2023-08-13T00:38:19.912Z,12.69
2023-08-13T00:40:47.888Z,12.67
2023-08-13T00:46:25.264Z,12.66
2023-08-13T00:48:55.847Z,12.62
2023-08-13T00:51:23.877Z,12.56
2023-08-13T00:53:51.447Z,12.51
2023-08-13T00:56:19.019Z,12.49
2023-08-13T00:58:46.903Z,12.46
2023-08-13T01:01:14.589Z,12.44
2023-08-13T01:03:42.446Z,12.43
2023-08-13T01:06:15.242Z,12.43
2023-08-13T01:09:11.375Z,12.41
2023-08-13T01:11:57.241Z,12.40
2023-08-13T01:14:32.697Z,12.39
2023-08-13T01:17:00.107Z,12.37
2023-08-13T01:19:27.494Z,12.32
2023-08-13T01:21:55.655Z,12.22
2023-08-13T01:24:23.263Z,12.11
2023-08-13T01:27:13.707Z,12.02
2023-08-13T01:29:48.083Z,11.96
2023-08-13T01:32:16.353Z,11.92
2023-08-13T01:34:44.228Z,11.88
2023-08-13T01:37:11.847Z,11.84
2023-08-13T01:39:39.261Z,11.83
2023-08-13T01:42:07.864Z,11.82
2023-08-13T01:44:36.471Z,11.83
2023-08-13T01:47:06.120Z,11.84
2023-08-13T01:49:33.833Z,11.85
2023-08-13T01:52:01.220Z,11.84
2023-08-13T01:54:29.261Z,11.82
2023-08-13T01:56:56.649Z,11.81
2023-08-13T01:59:24.412Z,11.81
2023-08-13T02:01:51.833Z,11.81
2023-08-13T02:04:19.181Z,11.81
2023-08-13T02:06:46.830Z,11.78
2023-08-13T02:09:14.239Z,11.72
2023-08-13T02:11:41.871Z,11.65
2023-08-13T02:14:10.043Z,11.60
2023-08-13T02:16:37.472Z,11.57
2023-08-13T02:19:05.217Z,11.56
2023-08-13T02:21:32.942Z,11.58
2023-08-13T02:24:00.567Z,11.60
2023-08-13T02:26:27.882Z,11.60
2023-08-13T02:28:55.378Z,11.61
2023-08-13T02:31:22.836Z,11.59
2023-08-13T02:33:50.350Z,11.54
2023-08-13T02:36:17.704Z,11.50
2023-08-13T02:38:45.208Z,11.45
2023-08-13T02:41:12.649Z,11.42
2023-08-13T02:43:56.630Z,11.38
2023-08-13T02:46:25.221Z,11.38
2023-08-13T02:48:57.074Z,11.37
2023-08-13T02:51:25.131Z,11.36
2023-08-13T02:53:52.665Z,11.35
2023-08-13T02:56:20.408Z,11.36
2023-08-13T02:58:47.820Z,11.38
2023-08-13T03:01:15.241Z,11.38
2023-08-13T03:03:52.361Z,11.37
2023-08-13T03:06:24.175Z,11.34
2023-08-13T03:08:51.889Z,11.32
2023-08-13T03:11:19.452Z,11.27
2023-08-13T03:13:47.875Z,11.24
2023-08-13T03:16:16.157Z,11.23
2023-08-13T03:18:44.005Z,11.23
2023-08-13T03:21:14.061Z,11.24
2023-08-13T03:23:41.476Z,11.23
2023-08-13T03:26:08.957Z,11.24
2023-08-13T03:28:36.797Z,11.33
2023-08-13T03:31:11.451Z,11.47
2023-08-13T03:33:47.952Z,11.66
2023-08-13T03:36:15.412Z,11.82
2023-08-13T03:38:42.753Z,11.97
2023-08-13T03:41:10.893Z,12.11
2023-08-13T03:43:38.226Z,12.31
2023-08-13T03:46:05.644Z,12.55
2023-08-13T03:48:33.924Z,12.88
2023-08-13T03:51:05.169Z,13.29
2023-08-13T03:53:33.113Z,13.72
2023-08-13T03:56:00.640Z,14.18
2023-08-13T03:58:29.530Z,14.70
2023-08-13T04:00:57.027Z,15.26
2023-08-13T04:03:26.700Z,15.79
2023-08-13T04:05:55.091Z,16.28
2023-08-13T04:08:22.498Z,16.67
2023-08-13T04:10:51.398Z,17.17
2023-08-13T04:13:20.555Z,17.72
2023-08-13T04:15:48.076Z,18.26
2023-08-13T04:18:15.861Z,18.73
2023-08-13T04:20:43.503Z,18.98
2023-08-13T04:23:11.018Z,19.14
2023-08-13T04:25:40.860Z,19.40
2023-08-13T04:28:08.651Z,19.74
2023-08-13T04:30:39.768Z,20.14
2023-08-13T04:33:07.530Z,20.48
2023-08-13T04:35:35.491Z,20.71
2023-08-13T04:38:03.366Z,20.95
2023-08-13T04:40:33.340Z,21.10
2023-08-13T04:43:00.735Z,21.21
2023-08-13T04:45:29.329Z,21.46
2023-08-13T04:47:56.915Z,21.78
2023-08-13T04:50:24.719Z,22.14
2023-08-13T04:52:52.067Z,22.44
2023-08-13T04:55:19.860Z,22.59
2023-08-13T04:57:50.598Z,22.40
2023-08-13T05:00:20.444Z,21.92
2023-08-13T05:02:49.578Z,21.35
2023-08-13T05:05:18.137Z,20.82
2023-08-13T05:07:46.889Z,20.32
2023-08-13T05:10:14.380Z,19.83
2023-08-13T05:12:41.711Z,19.49
2023-08-13T05:15:09.958Z,19.24
2023-08-13T05:17:38.733Z,19.02
2023-08-13T05:20:07.942Z,18.83
2023-08-13T05:22:35.331Z,18.65
2023-08-13T05:25:03.724Z,18.52
2023-08-13T05:27:31.336Z,18.43
2023-08-13T05:29:58.947Z,18.35
2023-08-13T05:32:27.053Z,18.27
2023-08-13T05:34:54.566Z,18.18
2023-08-13T05:37:22.581Z,18.10
2023-08-13T05:39:50.126Z,18.03
2023-08-13T05:42:17.689Z,17.96
2023-08-13T05:44:45.419Z,17.90
2023-08-13T05:47:14.996Z,17.86
2023-08-13T05:49:42.853Z,17.82
2023-08-13T05:52:10.267Z,17.80
2023-08-13T05:54:37.589Z,17.76
2023-08-13T05:57:04.958Z,17.68
2023-08-13T05:59:34.342Z,17.64
2023-08-13T06:02:01.858Z,17.64
2023-08-13T06:04:29.423Z,17.65
2023-08-13T06:06:56.755Z,17.70
2023-08-13T06:09:24.557Z,17.74
2023-08-13T06:11:51.990Z,17.76
2023-08-13T06:14:19.581Z,17.75
2023-08-13T06:16:49.143Z,17.73
2023-08-13T06:19:20.042Z,17.76
2023-08-13T06:21:47.356Z,17.82
2023-08-13T06:24:14.706Z,17.90
2023-08-13T06:26:42.142Z,17.96
2023-08-13T06:29:09.704Z,18.01
2023-08-13T06:31:43.095Z,18.07
2023-08-13T06:34:11.203Z,18.14
2023-08-13T06:36:38.527Z,18.20
2023-08-13T06:39:06.157Z,18.27
2023-08-13T06:41:33.996Z,18.34
2023-08-13T06:44:04.626Z,18.39
2023-08-13T06:46:32.088Z,18.43
2023-08-13T06:48:59.531Z,18.46
2023-08-13T06:51:26.886Z,18.51
2023-08-13T06:53:54.237Z,18.58
2023-08-13T06:56:21.591Z,18.65
2023-08-13T06:58:48.947Z,18.73
2023-08-13T07:01:16.335Z,18.82
2023-08-13T07:03:45.651Z,18.91
2023-08-13T07:06:13.152Z,18.99
2023-08-13T07:08:40.804Z,19.07
2023-08-13T07:11:08.219Z,19.15
2023-08-13T07:13:35.629Z,19.22
2023-08-13T07:16:03.088Z,19.29
2023-08-13T07:18:30.428Z,19.37
2023-08-13T07:20:57.739Z,19.48
2023-08-13T07:23:25.123Z,19.57
2023-08-13T07:25:52.560Z,19.66
2023-08-13T07:28:19.884Z,19.73
2023-08-13T07:30:48.781Z,19.80
2023-08-13T07:33:16.244Z,19.89
2023-08-13T07:35:43.665Z,19.97
2023-08-13T07:38:11.225Z,20.06
2023-08-13T07:40:38.787Z,20.16
2023-08-13T07:43:06.218Z,20.24
2023-08-13T07:45:34.342Z,20.34
2023-08-13T07:48:01.936Z,20.42
2023-08-13T07:50:31.957Z,20.51
2023-08-13T07:52:59.431Z,20.59
2023-08-13T07:55:26.941Z,20.67
2023-08-13T07:57:54.784Z,20.76
2023-08-13T08:00:22.212Z,20.85
2023-08-13T08:02:49.792Z,20.93
2023-08-13T08:05:17.895Z,21.01
2023-08-13T08:07:45.276Z,21.10
2023-08-13T08:10:13.101Z,21.16
2023-08-13T08:12:40.453Z,21.23
2023-08-13T08:15:08.782Z,21.31
2023-08-13T08:17:38.260Z,21.38
2023-08-13T08:20:07.791Z,21.47
2023-08-13T08:22:35.346Z,21.55
2023-08-13T08:25:07.617Z,21.62
2023-08-13T08:27:34.905Z,21.68
2023-08-13T08:30:02.385Z,21.77
2023-08-13T08:32:31.282Z,21.85
2023-08-13T08:34:58.697Z,21.92
2023-08-13T08:37:26.073Z,22.01
2023-08-13T08:39:55.028Z,22.10
2023-08-13T08:42:22.540Z,22.20
2023-08-13T08:44:49.972Z,22.29
2023-08-13T08:47:17.287Z,22.37
2023-08-13T08:49:46.370Z,22.42
2023-08-13T08:52:14.642Z,22.46
2023-08-13T08:54:42.216Z,22.51
2023-08-13T08:57:09.693Z,22.59
2023-08-13T08:59:37.429Z,22.67
2023-08-13T09:02:05.109Z,22.74
2023-08-13T09:04:32.651Z,22.80
2023-08-13T09:07:01.615Z,22.85
2023-08-13T09:09:29.021Z,22.91
2023-08-13T09:11:56.818Z,22.95
2023-08-13T09:14:24.803Z,22.99
2023-08-13T09:16:53.245Z,23.01
2023-08-13T09:19:22.913Z,23.04
2023-08-13T09:21:59.961Z,23.07
2023-08-13T09:24:35.283Z,23.11
2023-08-13T09:27:03.161Z,23.18
2023-08-13T09:29:33.610Z,23.25
2023-08-13T09:32:01.490Z,23.30
2023-08-13T09:34:29.548Z,23.34
2023-08-13T09:36:57.810Z,23.38
2023-08-13T09:39:26.624Z,23.43
2023-08-13T09:41:54.261Z,23.47
2023-08-13T09:44:22.840Z,23.52
2023-08-13T09:46:53.430Z,23.55
2023-08-13T09:49:22.876Z,23.56
2023-08-13T09:51:50.637Z,23.59
2023-08-13T09:54:38.968Z,23.62
2023-08-13T09:57:11.383Z,23.66
2023-08-13T09:59:38.819Z,23.68
2023-08-13T10:02:09.650Z,23.72
2023-08-13T10:04:37.057Z,23.77
2023-08-13T10:07:05.201Z,23.80
2023-08-13T10:09:35.799Z,23.83
2023-08-13T10:12:03.420Z,23.88
2023-08-13T10:14:31.436Z,23.92
2023-08-13T10:17:06.911Z,23.96
2023-08-13T10:19:41.792Z,23.98
2023-08-13T10:22:09.997Z,24.00
2023-08-13T10:24:37.349Z,24.05
2023-08-13T10:27:04.938Z,24.09
2023-08-13T10:29:37.044Z,24.13
2023-08-13T10:32:15.254Z,24.17
2023-08-13T10:34:51.609Z,24.25
2023-08-13T10:37:23.570Z,24.31
2023-08-13T10:39:57.099Z,24.39
2023-08-13T10:42:27.588Z,24.42
2023-08-13T10:44:57.344Z,24.45
2023-08-13T10:47:24.865Z,24.47
2023-08-13T10:49:52.278Z,24.50
2023-08-13T10:52:19.919Z,24.53
2023-08-13T10:54:47.272Z,24.55
2023-08-13T10:57:14.654Z,24.54
2023-08-13T10:59:42.708Z,24.53
2023-08-13T11:02:21.506Z,24.55
2023-08-13T11:04:50.285Z,24.58
2023-08-13T11:07:17.622Z,24.60
2023-08-13T11:09:45.038Z,24.64
2023-08-13T11:12:13.624Z,24.67
2023-08-13T11:14:41.504Z,24.71
2023-08-13T11:17:09.537Z,24.78
2023-08-13T11:19:37.488Z,24.82
2023-08-13T11:25:05.605Z,24.90
2023-08-13T11:27:33.149Z,24.91
2023-08-13T11:30:00.689Z,24.95
2023-08-13T11:32:28.898Z,25.01
2023-08-13T11:34:56.519Z,25.04
2023-08-13T11:37:24.001Z,25.07
2023-08-13T11:39:51.771Z,25.10
2023-08-13T11:42:19.195Z,25.13
2023-08-13T11:44:49.260Z,25.15
2023-08-13T11:47:27.580Z,25.17
2023-08-13T11:50:00.365Z,25.20
2023-08-13T11:52:27.833Z,25.23
2023-08-13T11:54:57.925Z,25.25
2023-08-13T11:57:25.264Z,25.28
2023-08-13T11:59:52.743Z,25.29
2023-08-13T12:02:20.397Z,25.28
2023-08-13T12:04:48.572Z,25.29
2023-08-13T12:07:16.553Z,25.30
2023-08-13T12:09:43.949Z,25.30
2023-08-13T12:12:11.286Z,25.31
2023-08-13T12:14:46.048Z,25.31
2023-08-13T12:17:13.950Z,25.35
2023-08-13T12:19:41.371Z,25.37
2023-08-13T12:22:09.198Z,25.40
2023-08-13T12:24:36.544Z,25.42
2023-08-13T12:27:03.985Z,25.44
2023-08-13T12:29:31.486Z,25.46
2023-08-13T12:31:58.912Z,25.46
2023-08-13T12:34:26.342Z,25.45
2023-08-13T12:36:53.912Z,25.45
2023-08-13T12:39:21.575Z,25.47
2023-08-13T12:41:48.937Z,25.49
2023-08-13T12:44:16.686Z,25.51
2023-08-13T12:46:44.109Z,25.54
2023-08-13T12:49:11.465Z,25.56
2023-08-13T12:51:38.788Z,25.58
2023-08-13T12:54:06.260Z,25.59
2023-08-13T12:56:33.552Z,25.59
2023-08-13T12:59:01.083Z,25.59
2023-08-13T13:01:28.779Z,25.59
2023-08-13T13:03:56.313Z,25.60
2023-08-13T13:06:23.716Z,25.61
2023-08-13T13:08:51.756Z,25.63
2023-08-13T13:11:19.136Z,25.66
2023-08-13T13:13:46.717Z,25.68
2023-08-13T13:16:14.346Z,25.70
2023-08-13T13:18:41.809Z,25.72
2023-08-13T13:21:09.400Z,25.74
2023-08-13T13:23:36.769Z,25.75
2023-08-13T13:26:04.223Z,25.78
2023-08-13T13:28:31.643Z,25.80
2023-08-13T13:30:59.040Z,25.84
2023-08-13T13:33:26.673Z,25.85
2023-08-13T13:35:53.990Z,25.86
2023-08-13T13:38:21.594Z,25.88
2023-08-13T13:40:49.009Z,25.89
2023-08-13T13:43:16.359Z,25.90
2023-08-13T13:45:44.007Z,25.91
2023-08-13T13:48:11.572Z,25.90
2023-08-13T13:50:39.061Z,25.92
2023-08-13T13:53:19.338Z,25.93
2023-08-13T13:55:48.952Z,25.94
2023-08-13T13:58:16.304Z,25.95
2023-08-13T14:00:44.462Z,25.95
2023-08-13T14:03:11.956Z,25.94
2023-08-13T14:05:39.472Z,25.94
2023-08-13T14:08:07.004Z,25.96
2023-08-13T14:10:34.418Z,26.00
2023-08-13T14:13:01.948Z,26.03
2023-08-13T14:15:29.282Z,26.06
2023-08-13T14:17:56.755Z,26.07
2023-08-13T14:20:24.236Z,26.09
2023-08-13T14:22:51.546Z,26.11
2023-08-13T14:25:18.977Z,26.13
2023-08-13T14:27:46.362Z,26.14
2023-08-13T14:30:14.392Z,26.14
2023-08-13T14:32:41.778Z,26.14
2023-08-13T14:35:09.685Z,26.15
2023-08-13T14:37:36.994Z,26.17
2023-08-13T14:40:05.172Z,26.18
2023-08-13T14:42:32.566Z,26.18
2023-08-13T14:44:59.901Z,26.18
2023-08-13T14:47:27.413Z,26.20
2023-08-13T14:49:54.812Z,26.21
2023-08-13T14:52:22.147Z,26.21
2023-08-13T14:54:49.455Z,26.22
2023-08-13T14:57:16.794Z,26.23
2023-08-13T14:59:44.149Z,26.25
2023-08-13T15:02:11.645Z,26.26
2023-08-13T15:04:41.095Z,26.28
2023-08-13T15:07:08.477Z,26.30
2023-08-13T15:09:35.804Z,26.31
2023-08-13T15:12:03.957Z,26.33
2023-08-13T15:14:31.335Z,26.35
2023-08-13T15:16:58.619Z,26.39
2023-08-13T15:19:25.958Z,26.42
2023-08-13T15:21:53.335Z,26.44
2023-08-13T15:24:20.837Z,26.48
2023-08-13T15:26:48.176Z,26.48
2023-08-13T15:29:15.566Z,26.47
2023-08-13T15:31:42.993Z,26.46
2023-08-13T15:34:11.321Z,26.42
2023-08-13T15:36:38.669Z,26.41
2023-08-13T15:39:06.351Z,26.42
2023-08-13T15:41:33.677Z,26.43
2023-08-13T15:44:01.208Z,26.42
2023-08-13T15:46:28.629Z,26.41
2023-08-13T15:48:56.020Z,26.38
2023-08-13T15:51:23.438Z,26.36
2023-08-13T15:53:50.852Z,26.34
2023-08-13T15:56:18.215Z,26.34
2023-08-13T15:58:45.567Z,26.35
2023-08-13T16:01:12.957Z,26.35
2023-08-13T16:03:40.480Z,26.36
2023-08-13T16:06:07.841Z,26.37
2023-08-13T16:08:35.142Z,26.38
2023-08-13T16:11:02.550Z,26.40
2023-08-13T16:13:36.947Z,26.41
2023-08-13T16:16:04.971Z,26.39
2023-08-13T16:18:32.351Z,26.37
2023-08-13T16:20:59.832Z,26.35
2023-08-13T16:23:27.408Z,26.36
2023-08-13T16:25:55.180Z,26.37
2023-08-13T16:28:22.600Z,26.35
2023-08-13T16:30:50.098Z,26.34
2023-08-13T16:33:17.429Z,26.32
2023-08-13T16:35:44.771Z,26.31
2023-08-13T16:38:12.238Z,26.29
2023-08-13T16:40:39.722Z,26.27
2023-08-13T16:43:10.556Z,26.24
2023-08-13T16:45:39.752Z,26.21
2023-08-13T16:48:07.548Z,26.17
2023-08-13T16:50:35.165Z,26.14
2023-08-13T16:53:02.639Z,26.10
2023-08-13T16:55:30.196Z,26.07
2023-08-13T16:57:57.523Z,26.02
2023-08-13T17:00:24.898Z,25.96
2023-08-13T17:02:52.946Z,25.90
2023-08-13T17:05:20.651Z,25.84
2023-08-13T17:07:48.114Z,25.77
2023-08-13T17:10:15.640Z,25.68
2023-08-13T17:12:43.297Z,25.60
2023-08-13T17:15:22.869Z,25.49
2023-08-13T17:17:55.553Z,25.34
2023-08-13T17:20:23.874Z,25.18
2023-08-13T17:22:51.369Z,25.01
2023-08-13T17:25:19.595Z,24.83
2023-08-13T17:27:47.501Z,24.66
2023-08-13T17:30:15.235Z,24.49
2023-08-13T17:32:42.728Z,24.31
2023-08-13T17:35:10.603Z,24.14
2023-08-13T17:37:37.965Z,23.96
2023-08-13T17:40:06.509Z,23.79
2023-08-13T17:42:33.896Z,23.61
2023-08-13T17:45:01.266Z,23.45
2023-08-13T17:47:29.920Z,23.29
2023-08-13T17:49:58.186Z,23.12
2023-08-13T17:52:28.252Z,22.94
2023-08-13T17:54:55.596Z,22.77
2023-08-13T17:57:23.147Z,22.61
2023-08-13T17:59:50.593Z,22.46
2023-08-13T18:02:27.828Z,22.29
2023-08-13T18:04:55.919Z,22.14
2023-08-13T18:07:26.224Z,22.00
2023-08-13T18:09:55.375Z,21.85
2023-08-13T18:12:22.802Z,21.70
2023-08-13T18:14:51.420Z,21.59
2023-08-13T18:17:19.107Z,21.48
2023-08-13T18:19:47.853Z,21.36
2023-08-13T18:22:15.226Z,21.26
2023-08-13T18:24:42.579Z,21.16
2023-08-13T18:27:09.933Z,21.04
2023-08-13T18:29:37.546Z,20.94
2023-08-13T18:32:05.654Z,20.85
2023-08-13T18:34:32.942Z,20.76
2023-08-13T18:37:00.349Z,20.68
2023-08-13T18:39:27.708Z,20.62
2023-08-13T18:41:55.029Z,20.55
2023-08-13T18:44:22.361Z,20.49
2023-08-13T18:46:49.909Z,20.42
2023-08-13T18:49:17.678Z,20.35
2023-08-13T18:51:45.117Z,20.27
2023-08-13T18:54:15.570Z,20.20
2023-08-13T18:56:44.026Z,20.13
2023-08-13T18:59:11.391Z,20.06
2023-08-13T19:01:38.826Z,19.98
2023-08-13T19:04:06.639Z,19.89
2023-08-13T19:06:34.020Z,19.80
2023-08-13T19:09:28.420Z,19.73
2023-08-13T19:11:56.606Z,19.66
2023-08-13T19:14:24.012Z,19.59
2023-08-13T19:16:51.458Z,19.53
2023-08-13T19:19:19.142Z,19.49
2023-08-13T19:21:47.211Z,19.42
2023-08-13T19:24:14.789Z,19.36
2023-08-13T19:26:43.234Z,19.30
2023-08-13T19:29:11.056Z,19.24
2023-08-13T19:31:39.947Z,19.17
2023-08-13T19:34:07.402Z,19.10
2023-08-13T19:36:34.787Z,19.04
2023-08-13T19:39:02.133Z,18.98
2023-08-13T19:41:29.827Z,18.93
2023-08-13T19:43:57.295Z,18.87
2023-08-13T19:46:24.718Z,18.80
2023-08-13T19:48:52.152Z,18.75
2023-08-13T19:51:19.639Z,18.72
2023-08-13T19:53:47.614Z,18.68
2023-08-13T19:56:15.297Z,18.64
2023-08-13T19:58:43.112Z,18.60
2023-08-13T20:01:12.215Z,18.57
2023-08-13T20:03:39.705Z,18.51
2023-08-13T20:06:07.198Z,18.46
2023-08-13T20:08:34.576Z,18.40
2023-08-13T20:11:01.949Z,18.37
2023-08-13T20:13:29.387Z,18.34
2023-08-13T20:16:07.086Z,18.30
2023-08-13T20:18:34.671Z,18.26
2023-08-13T20:21:02.035Z,18.21
2023-08-13T20:23:29.546Z,18.17
2023-08-13T20:25:56.965Z,18.12
2023-08-13T20:28:24.391Z,18.09
2023-08-13T20:30:51.818Z,18.05
2023-08-13T20:33:19.204Z,18.02
2023-08-13T20:35:48.520Z,17.97
2023-08-13T20:38:16.027Z,17.92
2023-08-13T20:40:49.799Z,17.88
2023-08-13T20:43:20.558Z,17.84
2023-08-13T20:45:48.081Z,17.80
2023-08-13T20:48:15.706Z,17.76
2023-08-13T20:50:43.217Z,17.72
2023-08-13T20:53:10.571Z,17.68
2023-08-13T20:55:38.129Z,17.64
2023-08-13T20:58:05.672Z,17.60
2023-08-13T21:00:33.048Z,17.57
2023-08-13T21:03:00.441Z,17.54
2023-08-13T21:05:29.320Z,17.50
2023-08-13T21:07:56.673Z,17.47
2023-08-13T21:10:24.118Z,17.42
2023-08-13T21:12:51.504Z,17.38
2023-08-13T21:15:18.879Z,17.34
2023-08-13T21:17:46.256Z,17.31
2023-08-13T21:20:13.644Z,17.30
2023-08-13T21:22:41.236Z,17.27
2023-08-13T21:25:08.959Z,17.25
2023-08-13T21:27:36.511Z,17.23
2023-08-13T21:30:11.528Z,17.22
2023-08-13T21:32:39.815Z,17.19
2023-08-13T21:35:11.612Z,17.18
2023-08-13T21:37:39.911Z,17.16
2023-08-13T21:40:08.470Z,17.14
2023-08-13T21:42:35.840Z,17.13
2023-08-13T21:45:03.710Z,17.11
2023-08-13T21:47:31.235Z,17.09
2023-08-13T21:49:58.563Z,17.07
2023-08-13T21:52:25.997Z,17.05
2023-08-13T21:54:53.340Z,17.03
2023-08-13T21:57:20.668Z,17.00
2023-08-13T21:59:48.208Z,16.98
2023-08-13T22:02:15.828Z,16.96
2023-08-13T22:04:43.651Z,16.93
2023-08-13T22:07:10.990Z,16.88
2023-08-13T22:09:38.331Z,16.87
2023-08-13T22:12:06.136Z,16.84
2023-08-13T22:14:33.493Z,16.82
2023-08-13T22:17:00.842Z,16.80
2023-08-13T22:19:45.937Z,16.78
2023-08-13T22:22:13.308Z,16.75
2023-08-13T22:24:40.627Z,16.72
2023-08-13T22:27:08.300Z,16.69
2023-08-13T22:29:35.628Z,16.66
2023-08-13T22:32:03.135Z,16.63
2023-08-13T22:34:30.664Z,16.61
2023-08-13T22:36:58.053Z,16.57
2023-08-13T22:39:30.909Z,16.54
2023-08-13T22:41:59.208Z,16.52
2023-08-13T22:44:26.658Z,16.50
2023-08-13T22:46:54.022Z,16.48
2023-08-13T22:49:35.234Z,16.45
2023-08-13T22:52:12.646Z,16.43
2023-08-13T22:54:40.646Z,16.41
2023-08-13T22:57:09.459Z,16.39
2023-08-13T22:59:37.330Z,16.37
2023-08-13T23:02:05.106Z,16.35
2023-08-13T23:04:32.580Z,16.33
2023-08-13T23:07:00.344Z,16.31
2023-08-13T23:09:27.925Z,16.28
2023-08-13T23:11:55.738Z,16.23
2023-08-13T23:14:23.148Z,16.19
2023-08-13T23:16:54.487Z,16.16
2023-08-13T23:19:22.887Z,16.13
2023-08-13T23:21:50.431Z,16.11
2023-08-13T23:24:17.768Z,16.09
2023-08-13T23:26:45.374Z,16.05
2023-08-13T23:29:12.720Z,16.03
2023-08-13T23:31:40.139Z,16.01
2023-08-13T23:34:07.670Z,15.98
2023-08-13T23:36:34.975Z,15.94
2023-08-13T23:39:02.415Z,15.91
2023-08-13T23:42:37.692Z,15.89
2023-08-13T23:45:06.075Z,15.83
2023-08-13T23:47:33.644Z,15.79
2023-08-13T23:50:06.098Z,15.74
2023-08-13T23:52:33.836Z,15.72
2023-08-13T23:55:02.815Z,15.71
2023-08-13T23:57:30.203Z,15.72
2023-08-13T23:59:57.646Z,15.71
